createdAt,value
2018-08-31T00:00:30.879Z,0.00
2018-08-31T00:01:30.871Z,0.00
2018-08-31T00:02:30.871Z,0.00
2018-08-31T00:03:30.869Z,0.00
2018-08-31T00:04:30.866Z,0.00
2018-08-31T00:05:30.865Z,0.00
2018-08-31T00:06:30.864Z,0.00
2018-08-31T00:07:30.863Z,0.00
2018-08-31T00:08:30.862Z,0.00
2018-08-31T00:09:30.858Z,0.00
2018-08-31T00:10:30.857Z,0.00
2018-08-31T00:11:30.856Z,0.00
2018-08-31T00:12:30.854Z,0.00
2018-08-31T00:13:30.852Z,0.00
2018-08-31T00:14:30.850Z,0.00
2018-08-31T00:15:30.849Z,0.00
2018-08-31T00:16:30.847Z,0.00
2018-08-31T00:17:30.843Z,0.00
2018-08-31T00:18:30.844Z,0.00
2018-08-31T00:19:30.842Z,0.00
2018-08-31T00:20:30.839Z,0.00
2018-08-31T00:21:30.842Z,0.00
2018-08-31T00:22:30.837Z,0.00
2018-08-31T00:23:30.836Z,0.00
2018-08-31T00:24:30.834Z,0.00
2018-08-31T00:25:30.831Z,0.00
2018-08-31T00:26:30.831Z,0.00
2018-08-31T00:27:30.828Z,0.00
2018-08-31T00:28:30.828Z,0.00
2018-08-31T00:29:30.825Z,0.00
2018-08-31T00:30:30.822Z,0.00
2018-08-31T00:31:30.823Z,0.00
2018-08-31T00:32:30.819Z,0.00
2018-08-31T00:33:30.823Z,0.00
2018-08-31T00:34:30.820Z,0.00
2018-08-31T00:35:30.812Z,0.00
2018-08-31T00:36:30.812Z,0.00
2018-08-31T00:37:30.813Z,0.00
2018-08-31T00:38:30.810Z,0.00
2018-08-31T00:39:30.807Z,0.00
2018-08-31T00:40:30.806Z,0.00
2018-08-31T00:41:30.803Z,0.00
2018-08-31T00:42:30.801Z,0.00
2018-08-31T00:43:30.802Z,0.00
2018-08-31T00:44:30.798Z,0.00
2018-08-31T00:45:30.797Z,0.00
2018-08-31T00:46:30.793Z,0.00
2018-08-31T00:47:30.791Z,0.00
2018-08-31T00:48:30.793Z,0.00
2018-08-31T00:49:30.789Z,0.00
2018-08-31T00:50:30.787Z,0.00
2018-08-31T00:51:30.784Z,0.00
2018-08-31T00:52:30.781Z,0.00
2018-08-31T00:53:30.783Z,0.00
2018-08-31T00:54:30.779Z,0.00
2018-08-31T00:55:30.774Z,0.00
2018-08-31T00:56:30.776Z,0.00
2018-08-31T00:57:30.773Z,0.00
2018-08-31T00:58:30.771Z,0.00
2018-08-31T00:59:30.770Z,0.00
2018-08-31T01:00:30.770Z,0.00
2018-08-31T01:01:30.761Z,0.00
2018-08-31T01:02:30.764Z,0.00
2018-08-31T01:03:30.762Z,0.00
2018-08-31T01:04:30.761Z,0.00
2018-08-31T01:05:30.757Z,0.00
2018-08-31T01:06:30.757Z,0.00
2018-08-31T01:07:30.755Z,0.00
2018-08-31T01:08:30.752Z,0.00
2018-08-31T01:09:30.751Z,0.00
2018-08-31T01:10:30.749Z,0.00
2018-08-31T01:11:30.747Z,0.00
2018-08-31T01:12:30.748Z,0.00
2018-08-31T01:13:30.742Z,0.00
2018-08-31T01:14:30.743Z,0.00
2018-08-31T01:15:30.744Z,0.00
2018-08-31T01:16:30.739Z,0.00
2018-08-31T01:17:30.732Z,0.00
2018-08-31T01:18:30.735Z,0.00
2018-08-31T01:19:30.728Z,0.00
2018-08-31T01:20:30.726Z,0.00
2018-08-31T01:21:30.727Z,0.00
2018-08-31T01:22:30.726Z,0.00
2018-08-31T01:23:30.723Z,0.00
2018-08-31T01:24:30.722Z,0.00
2018-08-31T01:25:30.718Z,0.00
2018-08-31T01:26:30.717Z,0.00
2018-08-31T01:27:30.717Z,0.00
2018-08-31T01:28:30.712Z,0.00
2018-08-31T01:29:30.711Z,0.00
2018-08-31T01:30:30.715Z,0.00
2018-08-31T01:31:30.707Z,0.00
2018-08-31T01:32:30.705Z,0.00
2018-08-31T01:33:30.700Z,0.00
2018-08-31T01:34:30.701Z,0.00
2018-08-31T01:35:30.698Z,0.00
2018-08-31T01:36:30.695Z,0.00
2018-08-31T01:37:30.693Z,0.00
2018-08-31T01:38:30.692Z,0.00
2018-08-31T01:39:30.691Z,0.00
2018-08-31T01:40:30.687Z,0.00
2018-08-31T01:41:30.686Z,0.00
2018-08-31T01:42:30.687Z,0.00
2018-08-31T01:43:30.679Z,0.00
2018-08-31T01:44:30.676Z,0.00
2018-08-31T01:45:30.674Z,0.00
2018-08-31T01:46:30.673Z,0.00
2018-08-31T01:47:30.671Z,0.00
2018-08-31T01:48:30.670Z,0.00
2018-08-31T01:49:30.666Z,0.00
2018-08-31T01:50:30.664Z,0.00
2018-08-31T01:51:30.663Z,0.00
2018-08-31T01:52:30.677Z,0.00
2018-08-31T01:53:30.657Z,0.00
2018-08-31T01:54:30.657Z,0.00
2018-08-31T01:55:30.652Z,0.00
2018-08-31T01:56:30.651Z,0.00
2018-08-31T01:57:30.648Z,0.00
2018-08-31T01:58:30.646Z,0.00
2018-08-31T01:59:30.643Z,0.00
2018-08-31T02:00:30.642Z,0.00
2018-08-31T02:01:30.639Z,0.00
2018-08-31T02:02:30.637Z,0.00
2018-08-31T02:03:30.630Z,0.00
2018-08-31T02:04:30.633Z,0.00
2018-08-31T02:05:30.629Z,0.00
2018-08-31T02:06:30.626Z,0.00
2018-08-31T02:07:30.624Z,0.00
2018-08-31T02:08:30.623Z,0.00
2018-08-31T02:09:30.618Z,0.00
2018-08-31T02:10:30.615Z,0.00
2018-08-31T02:11:30.615Z,0.00
2018-08-31T02:12:30.611Z,0.00
2018-08-31T02:13:30.610Z,0.00
2018-08-31T02:14:30.605Z,0.00
2018-08-31T02:15:30.605Z,0.00
2018-08-31T02:16:30.606Z,0.00
2018-08-31T02:17:30.598Z,0.00
2018-08-31T02:18:30.597Z,0.00
2018-08-31T02:19:30.594Z,0.00
2018-08-31T02:20:30.592Z,0.00
2018-08-31T02:21:30.590Z,0.00
2018-08-31T02:22:30.585Z,0.00
2018-08-31T02:23:30.583Z,0.00
2018-08-31T02:24:30.582Z,0.00
2018-08-31T02:25:30.578Z,0.00
2018-08-31T02:26:30.578Z,0.00
2018-08-31T02:27:30.575Z,0.00
2018-08-31T02:28:30.571Z,0.00
2018-08-31T02:29:30.567Z,0.00
2018-08-31T02:30:30.568Z,0.00
2018-08-31T02:31:30.563Z,0.00
2018-08-31T02:32:30.559Z,0.00
2018-08-31T02:33:30.558Z,0.00
2018-08-31T02:34:30.556Z,0.00
2018-08-31T02:35:30.552Z,0.00
2018-08-31T02:36:30.557Z,0.00
2018-08-31T02:37:30.549Z,0.00
2018-08-31T02:38:30.545Z,0.00
2018-08-31T02:39:30.544Z,0.00
2018-08-31T02:40:30.540Z,0.00
2018-08-31T02:41:30.536Z,0.00
2018-08-31T02:42:30.537Z,0.00
2018-08-31T02:43:30.532Z,0.00
2018-08-31T02:44:30.530Z,0.00
2018-08-31T02:45:30.525Z,0.00
2018-08-31T02:46:30.522Z,0.00
2018-08-31T02:47:30.524Z,0.00
2018-08-31T02:48:30.518Z,0.00
2018-08-31T02:49:30.515Z,0.00
2018-08-31T02:50:30.513Z,0.00
2018-08-31T02:51:30.509Z,0.00
2018-08-31T02:52:30.508Z,0.00
2018-08-31T02:53:30.511Z,0.00
2018-08-31T02:54:30.500Z,0.00
2018-08-31T02:55:30.499Z,0.00
2018-08-31T02:56:30.496Z,0.00
2018-08-31T02:57:30.493Z,0.00
2018-08-31T02:58:30.487Z,0.00
2018-08-31T02:59:30.493Z,0.00
2018-08-31T03:00:30.485Z,0.00
2018-08-31T03:01:30.481Z,0.00
2018-08-31T03:02:30.478Z,0.00
2018-08-31T03:03:30.477Z,0.00
2018-08-31T03:04:30.474Z,0.00
2018-08-31T03:05:30.471Z,0.00
2018-08-31T03:06:30.468Z,0.00
2018-08-31T03:07:30.467Z,0.00
2018-08-31T03:08:30.463Z,0.00
2018-08-31T03:09:30.460Z,0.00
2018-08-31T03:10:30.459Z,0.00
2018-08-31T03:11:30.479Z,0.00
2018-08-31T03:12:30.450Z,0.00
2018-08-31T03:13:30.449Z,0.00
2018-08-31T03:14:30.448Z,0.00
2018-08-31T03:15:30.443Z,0.00
2018-08-31T03:16:30.440Z,0.00
2018-08-31T03:17:30.437Z,0.00
2018-08-31T03:18:30.433Z,0.00
2018-08-31T03:19:30.431Z,0.00
2018-08-31T03:20:30.428Z,0.00
2018-08-31T03:21:30.425Z,0.00
2018-08-31T03:22:30.422Z,0.00
2018-08-31T03:23:30.420Z,0.00
2018-08-31T03:24:30.417Z,0.00
2018-08-31T03:25:30.412Z,0.00
2018-08-31T03:26:30.412Z,0.00
2018-08-31T03:27:30.408Z,0.00
2018-08-31T03:28:30.407Z,0.00
2018-08-31T03:29:30.402Z,0.00
2018-08-31T03:30:30.398Z,0.00
2018-08-31T03:31:30.396Z,0.00
2018-08-31T03:32:30.393Z,0.00
2018-08-31T03:33:30.390Z,0.00
2018-08-31T03:34:30.390Z,0.00
2018-08-31T03:35:30.383Z,0.00
2018-08-31T03:36:30.382Z,0.00
2018-08-31T03:37:30.377Z,0.00
2018-08-31T03:38:30.376Z,0.00
2018-08-31T03:39:30.375Z,0.00
2018-08-31T03:40:30.371Z,0.00
2018-08-31T03:41:30.372Z,0.00
2018-08-31T03:42:30.364Z,0.00
2018-08-31T03:43:30.360Z,0.00
2018-08-31T03:44:30.365Z,0.00
2018-08-31T03:45:30.354Z,0.00
2018-08-31T03:46:30.351Z,0.00
2018-08-31T03:47:30.351Z,0.00
2018-08-31T03:48:30.347Z,0.00
2018-08-31T03:49:30.343Z,4.00
2018-08-31T03:50:30.343Z,4.00
2018-08-31T03:51:30.339Z,4.00
2018-08-31T03:52:30.335Z,4.00
2018-08-31T03:53:30.334Z,4.00
2018-08-31T03:54:30.337Z,4.00
2018-08-31T03:55:30.328Z,12.00
2018-08-31T03:56:30.325Z,12.00
2018-08-31T03:57:30.320Z,12.00
2018-08-31T03:58:30.320Z,12.00
2018-08-31T03:59:30.319Z,12.00
2018-08-31T04:00:30.316Z,16.00
2018-08-31T04:01:30.315Z,12.00
2018-08-31T04:02:30.307Z,16.00
2018-08-31T04:03:30.304Z,20.00
2018-08-31T04:04:30.303Z,24.00
2018-08-31T04:05:30.301Z,24.00
2018-08-31T04:06:30.298Z,28.00
2018-08-31T04:07:30.296Z,32.00
2018-08-31T04:08:30.293Z,36.00
2018-08-31T04:09:30.290Z,40.00
2018-08-31T04:10:30.286Z,48.00
2018-08-31T04:11:30.284Z,52.00
2018-08-31T04:12:30.288Z,60.00
2018-08-31T04:13:30.277Z,72.00
2018-08-31T04:14:30.274Z,84.00
2018-08-31T04:15:30.273Z,96.00
2018-08-31T04:16:30.269Z,108.00
2018-08-31T04:17:30.268Z,120.00
2018-08-31T04:18:30.266Z,136.00
2018-08-31T04:19:30.263Z,144.00
2018-08-31T04:20:30.261Z,156.00
2018-08-31T04:21:30.256Z,168.00
2018-08-31T04:22:30.255Z,180.00
2018-08-31T04:23:30.246Z,192.00
2018-08-31T04:24:30.252Z,204.00
2018-08-31T04:25:30.246Z,216.00
2018-08-31T04:26:30.249Z,224.00
2018-08-31T04:27:30.241Z,236.00
2018-08-31T04:28:30.238Z,240.00
2018-08-31T04:29:30.234Z,252.00
2018-08-31T04:30:30.233Z,260.00
2018-08-31T04:31:30.232Z,264.00
2018-08-31T04:32:30.227Z,276.00
2018-08-31T04:33:30.246Z,288.00
2018-08-31T04:34:30.224Z,300.00
2018-08-31T04:35:30.215Z,308.00
2018-08-31T04:36:30.219Z,308.00
2018-08-31T04:37:30.213Z,312.00
2018-08-31T04:38:30.208Z,320.00
2018-08-31T04:39:30.206Z,328.00
2018-08-31T04:40:30.209Z,336.00
2018-08-31T04:41:30.209Z,340.00
2018-08-31T04:42:30.200Z,348.00
2018-08-31T04:43:30.200Z,352.00
2018-08-31T04:44:30.200Z,364.00
2018-08-31T04:45:30.189Z,376.00
2018-08-31T04:46:30.187Z,388.00
2018-08-31T04:47:30.187Z,396.00
2018-08-31T04:48:30.185Z,416.00
2018-08-31T04:49:30.181Z,448.00
2018-08-31T04:50:30.221Z,488.00
2018-08-31T04:51:30.177Z,528.00
2018-08-31T04:52:30.174Z,568.00
2018-08-31T04:53:30.170Z,624.00
2018-08-31T04:54:30.164Z,672.00
2018-08-31T04:55:30.165Z,740.00
2018-08-31T04:56:30.164Z,796.00
2018-08-31T04:57:30.159Z,844.00
2018-08-31T04:58:30.159Z,872.00
2018-08-31T04:59:30.156Z,916.00
2018-08-31T05:00:30.153Z,956.00
2018-08-31T05:01:30.150Z,956.00
2018-08-31T05:02:30.150Z,956.00
2018-08-31T05:03:30.144Z,900.00
2018-08-31T05:04:30.148Z,860.00
2018-08-31T05:05:30.138Z,824.00
2018-08-31T05:06:30.143Z,796.00
2018-08-31T05:07:30.135Z,776.00
2018-08-31T05:08:30.127Z,768.00
2018-08-31T05:09:30.126Z,772.00
2018-08-31T05:10:30.131Z,784.00
2018-08-31T05:11:30.124Z,788.00
2018-08-31T05:12:30.123Z,792.00
2018-08-31T05:13:30.118Z,800.00
2018-08-31T05:14:30.117Z,812.00
2018-08-31T05:15:30.114Z,836.00
2018-08-31T05:16:30.110Z,876.00
2018-08-31T05:17:30.110Z,920.00
2018-08-31T05:18:30.109Z,956.00
2018-08-31T05:19:30.114Z,992.00
2018-08-31T05:20:30.101Z,1020.00
2018-08-31T05:21:30.099Z,1048.00
2018-08-31T05:22:30.132Z,1076.00
2018-08-31T05:23:30.096Z,1092.00
2018-08-31T05:24:30.094Z,1144.00
2018-08-31T05:25:30.088Z,1164.00
2018-08-31T05:26:30.085Z,1196.00
2018-08-31T05:27:30.088Z,1180.00
2018-08-31T05:28:30.135Z,1168.00
2018-08-31T05:29:30.079Z,1140.00
2018-08-31T05:30:30.075Z,1148.00
2018-08-31T05:31:30.076Z,1196.00
2018-08-31T05:32:30.066Z,1188.00
2018-08-31T05:33:30.071Z,1200.00
2018-08-31T05:34:30.069Z,1300.00
2018-08-31T05:35:30.064Z,1348.00
2018-08-31T05:36:30.060Z,1336.00
2018-08-31T05:37:30.057Z,1436.00
2018-08-31T05:38:30.054Z,1552.00
2018-08-31T05:39:30.053Z,1648.00
2018-08-31T05:40:30.052Z,1748.00
2018-08-31T05:41:30.045Z,1816.00
2018-08-31T05:42:30.089Z,1872.00
2018-08-31T05:43:30.044Z,1860.00
2018-08-31T05:44:30.050Z,1956.00
2018-08-31T05:45:30.040Z,2092.00
2018-08-31T05:46:30.036Z,2312.00
2018-08-31T05:47:30.036Z,2588.00
2018-08-31T05:48:30.040Z,2904.00
2018-08-31T05:49:30.028Z,3252.00
2018-08-31T05:50:30.022Z,3092.00
2018-08-31T05:51:30.026Z,3172.00
2018-08-31T05:52:30.020Z,3244.00
2018-08-31T05:53:30.042Z,2944.00
2018-08-31T05:54:30.017Z,2916.00
2018-08-31T05:55:30.011Z,3028.00
2018-08-31T05:56:30.010Z,3076.00
2018-08-31T05:57:30.006Z,2836.00
2018-08-31T05:58:30.004Z,2756.00
2018-08-31T05:59:30.001Z,2476.00
2018-08-31T06:00:29.999Z,2516.00
2018-08-31T06:01:29.994Z,2608.00
2018-08-31T06:02:29.993Z,2932.00
2018-08-31T06:03:30.000Z,2644.00
2018-08-31T06:04:29.988Z,2772.00
2018-08-31T06:05:29.986Z,2868.00
2018-08-31T06:06:29.984Z,2780.00
2018-08-31T06:07:29.985Z,2912.00
2018-08-31T06:08:29.982Z,3268.00
2018-08-31T06:09:29.976Z,3440.00
2018-08-31T06:10:29.978Z,4080.00
2018-08-31T06:11:29.972Z,4716.00
2018-08-31T06:12:29.976Z,4484.00
2018-08-31T06:13:29.968Z,4296.00
2018-08-31T06:14:29.964Z,4284.00
2018-08-31T06:15:29.965Z,4276.00
2018-08-31T06:16:29.962Z,4328.00
2018-08-31T06:17:29.958Z,4428.00
2018-08-31T06:18:29.955Z,4424.00
2018-08-31T06:19:29.956Z,4836.00
2018-08-31T06:20:29.953Z,4808.00
2018-08-31T06:21:29.951Z,4684.00
2018-08-31T06:22:29.948Z,4760.00
2018-08-31T06:23:29.945Z,5228.00
2018-08-31T06:24:29.939Z,5108.00
2018-08-31T06:25:29.940Z,5160.00
2018-08-31T06:26:29.937Z,5152.00
2018-08-31T06:27:29.938Z,4632.00
2018-08-31T06:28:29.936Z,4616.00
2018-08-31T06:29:29.931Z,4628.00
2018-08-31T06:30:29.938Z,4664.00
2018-08-31T06:31:29.929Z,5400.00
2018-08-31T06:32:29.954Z,5912.00
2018-08-31T06:33:29.930Z,5256.00
2018-08-31T06:34:29.924Z,4728.00
2018-08-31T06:35:29.919Z,4404.00
2018-08-31T06:36:29.921Z,4076.00
2018-08-31T06:37:29.920Z,4332.00
2018-08-31T06:38:29.919Z,4644.00
2018-08-31T06:39:29.917Z,5048.00
2018-08-31T06:40:29.910Z,5572.00
2018-08-31T06:41:29.910Z,4824.00
2018-08-31T06:42:29.908Z,4736.00
2018-08-31T06:43:29.906Z,5600.00
2018-08-31T06:44:29.906Z,5472.00
2018-08-31T06:45:29.904Z,4888.00
2018-08-31T06:46:29.902Z,5152.00
2018-08-31T06:47:29.899Z,6076.00
2018-08-31T06:48:29.895Z,5872.00
2018-08-31T06:49:29.892Z,5384.00
2018-08-31T06:50:29.893Z,4448.00
2018-08-31T06:51:29.936Z,3764.00
2018-08-31T06:52:29.893Z,3492.00
2018-08-31T06:53:29.887Z,3412.00
2018-08-31T06:54:29.886Z,3372.00
2018-08-31T06:55:29.883Z,3476.00
2018-08-31T06:56:29.882Z,3608.00
2018-08-31T06:57:29.880Z,3676.00
2018-08-31T06:58:29.879Z,3936.00
2018-08-31T06:59:29.876Z,4092.00
2018-08-31T07:00:29.874Z,3916.00
2018-08-31T07:01:29.872Z,3780.00
2018-08-31T07:02:29.866Z,3888.00
2018-08-31T07:03:29.865Z,4372.00
2018-08-31T07:04:29.866Z,4928.00
2018-08-31T07:05:29.864Z,4776.00
2018-08-31T07:06:29.864Z,4024.00
2018-08-31T07:07:29.860Z,4244.00
2018-08-31T07:08:29.857Z,4448.00
2018-08-31T07:09:29.865Z,4372.00
2018-08-31T07:10:29.852Z,4352.00
2018-08-31T07:11:29.860Z,4040.00
2018-08-31T07:12:29.907Z,3776.00
2018-08-31T07:13:29.846Z,3976.00
2018-08-31T07:14:29.843Z,4328.00
2018-08-31T07:15:29.843Z,4172.00
2018-08-31T07:16:29.847Z,3828.00
2018-08-31T07:17:29.837Z,4176.00
2018-08-31T07:18:29.837Z,4132.00
2018-08-31T07:19:29.924Z,3912.00
2018-08-31T07:20:29.841Z,4268.00
2018-08-31T07:21:29.834Z,4400.00
2018-08-31T07:22:29.830Z,4124.00
2018-08-31T07:23:29.829Z,3876.00
2018-08-31T07:24:29.829Z,3812.00
2018-08-31T07:25:29.824Z,4080.00
2018-08-31T07:26:29.879Z,4060.00
2018-08-31T07:27:29.818Z,4132.00
2018-08-31T07:28:29.818Z,3908.00
2018-08-31T07:29:29.820Z,3708.00
2018-08-31T07:30:29.814Z,3620.00
2018-08-31T07:31:29.812Z,3492.00
2018-08-31T07:32:29.829Z,3772.00
2018-08-31T07:33:29.808Z,4028.00
2018-08-31T07:34:29.815Z,4484.00
2018-08-31T07:35:29.824Z,4488.00
2018-08-31T07:36:30.043Z,4248.00
2018-08-31T07:37:29.826Z,4316.00
2018-08-31T07:38:29.888Z,4428.00
2018-08-31T07:39:29.807Z,4288.00
2018-08-31T07:40:29.980Z,4172.00
2018-08-31T07:41:30.171Z,4084.00
2018-08-31T07:42:29.794Z,3680.00
2018-08-31T07:43:29.792Z,3928.00
2018-08-31T07:44:29.790Z,4324.00
2018-08-31T07:45:29.823Z,4396.00
2018-08-31T07:46:29.787Z,4464.00
2018-08-31T07:47:29.786Z,4420.00
2018-08-31T07:48:29.792Z,3744.00
2018-08-31T07:49:29.811Z,3464.00
2018-08-31T07:50:29.778Z,3164.00
2018-08-31T07:51:29.776Z,3428.00
2018-08-31T07:52:29.777Z,3872.00
2018-08-31T07:53:29.779Z,4148.00
2018-08-31T07:54:29.769Z,4024.00
2018-08-31T07:55:29.772Z,3836.00
2018-08-31T07:56:29.771Z,3604.00
2018-08-31T07:57:29.771Z,3484.00
2018-08-31T07:58:29.769Z,3744.00
2018-08-31T07:59:29.767Z,3964.00
2018-08-31T08:00:29.765Z,4364.00
2018-08-31T08:01:29.770Z,4480.00
2018-08-31T08:02:29.763Z,4912.00
2018-08-31T08:03:29.759Z,5540.00
2018-08-31T08:04:29.760Z,5600.00
2018-08-31T08:05:29.818Z,5240.00
2018-08-31T08:06:29.758Z,5220.00
2018-08-31T08:07:29.827Z,4792.00
2018-08-31T08:08:29.755Z,5040.00
2018-08-31T08:09:29.759Z,4916.00
2018-08-31T08:10:29.752Z,5344.00
2018-08-31T08:11:29.748Z,5256.00
2018-08-31T08:12:29.751Z,5160.00
2018-08-31T08:13:29.752Z,5128.00
2018-08-31T08:14:29.747Z,5116.00
2018-08-31T08:15:29.750Z,5000.00
2018-08-31T08:16:29.752Z,4292.00
2018-08-31T08:17:29.747Z,4684.00
2018-08-31T08:18:29.741Z,4636.00
2018-08-31T08:19:29.741Z,4148.00
2018-08-31T08:20:29.748Z,3780.00
2018-08-31T08:21:29.741Z,3940.00
2018-08-31T08:22:29.737Z,3940.00
2018-08-31T08:23:29.736Z,3720.00
2018-08-31T08:24:29.734Z,4068.00
2018-08-31T08:25:29.732Z,4652.00
2018-08-31T08:26:29.732Z,5552.00
2018-08-31T08:27:29.729Z,5988.00
2018-08-31T08:28:29.783Z,6976.00
2018-08-31T08:29:29.728Z,8172.00
2018-08-31T08:30:29.727Z,8280.00
2018-08-31T08:31:29.724Z,8480.00
2018-08-31T08:32:29.725Z,9876.00
2018-08-31T08:33:29.723Z,9248.00
2018-08-31T08:34:29.725Z,8588.00
2018-08-31T08:35:29.723Z,8944.00
2018-08-31T08:36:29.725Z,9028.00
2018-08-31T08:37:29.718Z,7648.00
2018-08-31T08:38:29.726Z,7060.00
2018-08-31T08:39:29.716Z,8364.00
2018-08-31T08:40:29.719Z,9112.00
2018-08-31T08:41:29.715Z,7556.00
2018-08-31T08:42:29.755Z,7204.00
2018-08-31T08:43:29.714Z,6940.00
2018-08-31T08:44:29.718Z,6968.00
2018-08-31T08:45:29.714Z,6768.00
2018-08-31T08:46:29.714Z,6460.00
2018-08-31T08:47:29.713Z,5920.00
2018-08-31T08:48:29.756Z,5620.00
2018-08-31T08:49:29.713Z,5144.00
2018-08-31T08:50:29.712Z,5360.00
2018-08-31T08:51:29.716Z,5628.00
2018-08-31T08:52:29.712Z,6992.00
2018-08-31T08:53:29.711Z,8936.00
2018-08-31T08:54:29.708Z,9160.00
2018-08-31T08:55:29.711Z,9196.00
2018-08-31T08:56:29.708Z,9332.00
2018-08-31T08:57:29.709Z,8872.00
2018-08-31T08:58:29.721Z,9044.00
2018-08-31T08:59:29.709Z,9424.00
2018-08-31T09:00:29.709Z,8640.00
2018-08-31T09:01:29.709Z,9256.00
2018-08-31T09:02:29.705Z,9360.00
2018-08-31T09:03:29.717Z,8356.00
2018-08-31T09:04:29.708Z,8000.00
2018-08-31T09:05:29.728Z,7832.00
2018-08-31T09:06:29.720Z,7836.00
2018-08-31T09:07:29.707Z,7748.00
2018-08-31T09:08:29.710Z,7852.00
2018-08-31T09:09:29.706Z,8364.00
2018-08-31T09:10:29.706Z,8844.00
2018-08-31T09:11:29.706Z,9148.00
2018-08-31T09:12:29.875Z,8532.00
2018-08-31T09:13:29.707Z,9364.00
2018-08-31T09:14:29.707Z,9828.00
2018-08-31T09:15:29.706Z,10740.00
2018-08-31T09:16:29.712Z,11800.00
2018-08-31T09:17:29.706Z,11196.00
2018-08-31T09:18:29.798Z,11332.00
2018-08-31T09:19:29.707Z,11940.00
2018-08-31T09:20:29.711Z,11276.00
2018-08-31T09:21:29.708Z,10240.00
2018-08-31T09:22:29.708Z,10360.00
2018-08-31T09:23:29.710Z,8776.00
2018-08-31T09:24:29.724Z,8104.00
2018-08-31T09:25:29.717Z,7668.00
2018-08-31T09:26:29.712Z,8276.00
2018-08-31T09:27:29.711Z,7272.00
2018-08-31T09:28:29.715Z,6712.00
2018-08-31T09:29:29.715Z,7496.00
2018-08-31T09:30:29.712Z,7324.00
2018-08-31T09:31:29.713Z,7652.00
2018-08-31T09:32:29.782Z,7828.00
2018-08-31T09:33:29.710Z,7784.00
2018-08-31T09:34:29.715Z,7500.00
2018-08-31T09:35:29.717Z,7440.00
2018-08-31T09:36:29.717Z,7588.00
2018-08-31T09:37:29.716Z,7808.00
2018-08-31T09:38:29.787Z,7536.00
2018-08-31T09:39:29.726Z,6424.00
2018-08-31T09:40:29.723Z,5968.00
2018-08-31T09:41:29.719Z,5428.00
2018-08-31T09:42:29.721Z,5012.00
2018-08-31T09:43:29.724Z,4512.00
2018-08-31T09:44:29.725Z,4168.00
2018-08-31T09:45:29.724Z,4320.00
2018-08-31T09:46:29.724Z,4280.00
2018-08-31T09:47:29.726Z,4596.00
2018-08-31T09:48:29.726Z,5012.00
2018-08-31T09:49:29.773Z,5328.00
2018-08-31T09:50:29.727Z,5060.00
2018-08-31T09:51:29.726Z,5080.00
2018-08-31T09:52:29.725Z,4888.00
2018-08-31T09:53:29.728Z,4700.00
2018-08-31T09:54:29.725Z,4728.00
2018-08-31T09:55:29.725Z,4808.00
2018-08-31T09:56:29.732Z,5004.00
2018-08-31T09:57:29.809Z,5012.00
2018-08-31T09:58:29.736Z,5444.00
2018-08-31T09:59:29.736Z,5936.00
2018-08-31T10:00:29.736Z,6400.00
2018-08-31T10:01:29.733Z,6920.00
2018-08-31T10:02:29.732Z,7372.00
2018-08-31T10:03:29.731Z,7864.00
2018-08-31T10:04:29.741Z,7860.00
2018-08-31T10:05:29.738Z,8024.00
2018-08-31T10:06:29.736Z,8512.00
2018-08-31T10:07:29.732Z,9444.00
2018-08-31T10:08:29.736Z,10816.00
2018-08-31T10:09:29.735Z,11624.00
2018-08-31T10:10:29.741Z,11032.00
2018-08-31T10:11:29.741Z,10144.00
2018-08-31T10:12:29.743Z,9156.00
2018-08-31T10:13:29.813Z,9020.00
2018-08-31T10:14:29.741Z,9824.00
2018-08-31T10:15:29.744Z,10916.00
2018-08-31T10:16:29.745Z,10548.00
2018-08-31T10:17:29.742Z,9676.00
2018-08-31T10:18:29.744Z,8956.00
2018-08-31T10:19:29.747Z,9384.00
2018-08-31T10:20:29.745Z,8840.00
2018-08-31T10:21:29.746Z,9024.00
2018-08-31T10:22:29.746Z,9104.00
2018-08-31T10:23:29.747Z,9432.00
2018-08-31T10:24:29.757Z,9276.00
2018-08-31T10:25:29.748Z,8768.00
2018-08-31T10:26:29.750Z,8380.00
2018-08-31T10:27:29.752Z,8648.00
2018-08-31T10:28:29.754Z,9316.00
2018-08-31T10:29:29.751Z,9648.00
2018-08-31T10:30:29.758Z,9556.00
2018-08-31T10:31:29.757Z,9904.00
2018-08-31T10:32:29.753Z,10340.00
2018-08-31T10:33:29.755Z,9580.00
2018-08-31T10:34:29.755Z,9256.00
2018-08-31T10:35:29.757Z,10364.00
2018-08-31T10:36:29.760Z,11124.00
2018-08-31T10:37:29.761Z,10736.00
2018-08-31T10:38:29.760Z,11104.00
2018-08-31T10:39:29.762Z,11220.00
2018-08-31T10:40:29.763Z,11044.00
2018-08-31T10:41:29.759Z,11180.00
2018-08-31T10:42:29.766Z,11664.00
2018-08-31T10:43:29.768Z,11076.00
2018-08-31T10:44:29.770Z,11116.00
2018-08-31T10:45:29.770Z,11144.00
2018-08-31T10:46:29.795Z,11140.00
2018-08-31T10:47:29.773Z,10532.00
2018-08-31T10:48:29.773Z,10140.00
2018-08-31T10:49:29.778Z,9464.00
2018-08-31T10:50:29.778Z,9272.00
2018-08-31T10:51:29.777Z,9856.00
2018-08-31T10:52:29.780Z,10116.00
2018-08-31T10:53:29.776Z,10172.00
2018-08-31T10:54:29.785Z,9904.00
2018-08-31T10:55:29.790Z,9280.00
2018-08-31T10:56:29.783Z,8988.00
2018-08-31T10:57:29.785Z,9032.00
2018-08-31T10:58:29.785Z,9252.00
2018-08-31T10:59:29.806Z,8748.00
2018-08-31T11:00:29.789Z,7896.00
2018-08-31T11:01:29.793Z,7428.00
2018-08-31T11:02:29.791Z,7912.00
2018-08-31T11:03:29.795Z,7956.00
2018-08-31T11:04:29.795Z,8660.00
2018-08-31T11:05:29.794Z,9660.00
2018-08-31T11:06:29.797Z,10112.00
2018-08-31T11:07:29.796Z,10040.00
2018-08-31T11:08:29.799Z,10156.00
2018-08-31T11:09:29.803Z,10804.00
2018-08-31T11:10:29.799Z,11244.00
2018-08-31T11:11:29.800Z,10996.00
2018-08-31T11:12:29.857Z,10600.00
2018-08-31T11:13:29.806Z,10528.00
2018-08-31T11:14:29.805Z,10420.00
2018-08-31T11:15:29.806Z,9976.00
2018-08-31T11:16:29.807Z,9088.00
2018-08-31T11:17:29.811Z,8584.00
2018-08-31T11:18:29.813Z,8660.00
2018-08-31T11:19:29.811Z,9020.00
2018-08-31T11:20:29.811Z,9068.00
2018-08-31T11:21:29.813Z,8592.00
2018-08-31T11:22:29.819Z,9196.00
2018-08-31T11:23:29.817Z,10520.00
2018-08-31T11:24:29.818Z,10648.00
2018-08-31T11:25:29.817Z,10628.00
2018-08-31T11:26:29.821Z,10692.00
2018-08-31T11:27:29.823Z,10616.00
2018-08-31T11:28:29.824Z,10420.00
2018-08-31T11:29:29.824Z,10232.00
2018-08-31T11:30:29.827Z,9952.00
2018-08-31T11:31:29.829Z,9308.00
2018-08-31T11:32:29.834Z,8492.00
2018-08-31T11:33:29.830Z,8408.00
2018-08-31T11:34:29.830Z,8860.00
2018-08-31T11:35:29.834Z,9140.00
2018-08-31T11:36:29.835Z,9112.00
2018-08-31T11:37:29.837Z,9384.00
2018-08-31T11:38:29.840Z,9276.00
2018-08-31T11:39:29.866Z,9296.00
2018-08-31T11:40:29.844Z,9672.00
2018-08-31T11:41:29.851Z,10152.00
2018-08-31T11:42:29.846Z,9780.00
2018-08-31T11:43:29.852Z,8936.00
2018-08-31T11:44:29.851Z,8580.00
2018-08-31T11:45:29.852Z,8496.00
2018-08-31T11:46:29.850Z,8168.00
2018-08-31T11:47:29.852Z,8276.00
2018-08-31T11:48:29.854Z,9012.00
2018-08-31T11:49:29.852Z,9564.00
2018-08-31T11:50:29.857Z,9428.00
2018-08-31T11:51:29.859Z,8852.00
2018-08-31T11:52:29.862Z,8416.00
2018-08-31T11:53:29.860Z,8420.00
2018-08-31T11:54:29.864Z,8208.00
2018-08-31T11:55:29.863Z,7100.00
2018-08-31T11:56:29.866Z,6852.00
2018-08-31T11:57:29.870Z,6616.00
2018-08-31T11:58:29.873Z,6768.00
2018-08-31T11:59:29.873Z,6628.00
2018-08-31T12:00:29.876Z,6292.00
2018-08-31T12:01:29.952Z,6216.00
2018-08-31T12:02:29.878Z,6372.00
2018-08-31T12:03:29.881Z,6996.00
2018-08-31T12:04:29.881Z,7656.00
2018-08-31T12:05:29.884Z,7260.00
2018-08-31T12:06:29.885Z,6380.00
2018-08-31T12:07:29.886Z,5240.00
2018-08-31T12:08:29.891Z,4808.00
2018-08-31T12:09:29.891Z,5040.00
2018-08-31T12:10:29.892Z,5428.00
2018-08-31T12:11:29.908Z,5604.00
2018-08-31T12:12:29.896Z,6012.00
2018-08-31T12:13:29.898Z,6304.00
2018-08-31T12:14:29.901Z,6748.00
2018-08-31T12:15:29.903Z,7284.00
2018-08-31T12:16:29.905Z,8112.00
2018-08-31T12:17:29.904Z,8840.00
2018-08-31T12:18:29.912Z,8604.00
2018-08-31T12:19:29.908Z,7852.00
2018-08-31T12:20:29.911Z,6644.00
2018-08-31T12:21:29.916Z,5648.00
2018-08-31T12:22:29.914Z,5164.00
2018-08-31T12:23:29.917Z,5292.00
2018-08-31T12:24:29.921Z,5112.00
2018-08-31T12:25:29.920Z,5356.00
2018-08-31T12:26:29.922Z,6048.00
2018-08-31T12:27:29.927Z,7448.00
2018-08-31T12:28:29.928Z,8460.00